Time;durP1;ratioP1;P1;durP2;ratioP2;P2;SDS_P1;SDS_P2;PMS_P1;PMS_P2;Temp;Humidity;BMP_temperature;BMP_pressure;BME280_temperature;BME280_humidity;BME280_pressure;Samples;Min_cycle;Max_cycle;Signal;HPM_P1;HPM_P2
2022/01/19 00:02:17;;;;;;;83.40;28.90;;;;;;;-0.97;76.63;100232.75;5089967;28;20085;-72
2022/01/19 00:04:42;;;;;;;78.25;28.48;;;;;;;-0.94;76.66;100221.63;5108988;27;20019;-72
2022/01/19 00:07:08;;;;;;;92.15;30.75;;;;;;;-0.93;76.53;100217.09;5108799;28;20026;-71
2022/01/19 00:09:33;;;;;;;87.25;32.03;;;;;;;-0.92;76.80;100216.91;5108685;28;20372;-71
2022/01/19 00:11:59;;;;;;;84.97;30.13;;;;;;;-0.89;76.38;100207.66;5108029;28;20459;-71
2022/01/19 00:14:24;;;;;;;83.78;29.73;;;;;;;-0.85;76.47;100202.72;5108380;28;20024;-72
2022/01/19 00:16:49;;;;;;;85.57;31.55;;;;;;;-0.83;76.61;100214.16;5109536;27;20391;-72
2022/01/19 00:19:15;;;;;;;89.60;31.17;;;;;;;-0.83;76.55;100212.34;5108482;28;20027;-71
2022/01/19 00:21:40;;;;;;;90.00;31.92;;;;;;;-0.82;76.39;100214.00;5091418;28;20077;-72
2022/01/19 00:24:06;;;;;;;83.68;30.67;;;;;;;-0.83;76.15;100208.78;5108168;28;20042;-71
2022/01/19 00:26:32;;;;;;;81.03;27.75;;;;;;;-0.83;76.24;100206.94;5108726;28;20457;-72
2022/01/19 00:28:59;;;;;;;77.20;28.33;;;;;;;-0.83;76.30;100204.25;5108477;28;20434;-72
2022/01/19 00:31:24;;;;;;;71.68;26.83;;;;;;;-0.85;76.59;100202.72;5107973;28;20035;-72
2022/01/19 00:33:49;;;;;;;78.43;27.60;;;;;;;-0.86;76.44;100201.06;5108167;28;20019;-71
2022/01/19 00:36:15;;;;;;;78.68;27.92;;;;;;;-0.82;76.42;100211.31;5108053;28;20027;-71
2022/01/19 00:38:40;;;;;;;79.82;28.75;;;;;;;-0.81;76.31;100199.50;5108413;28;20020;-72
2022/01/19 00:41:06;;;;;;;72.28;27.23;;;;;;;-0.78;76.16;100212.59;5107648;28;20093;-72
2022/01/19 00:43:35;;;;;;;72.50;25.05;;;;;;;-0.76;76.02;100217.84;5107705;28;20503;-71
2022/01/19 00:46:01;;;;;;;79.57;28.27;;;;;;;-0.74;76.23;100221.19;5089879;28;20028;-71
2022/01/19 00:48:27;;;;;;;68.78;27.08;;;;;;;-0.70;76.31;100214.44;5108296;28;20031;-72
2022/01/19 00:50:53;;;;;;;71.03;25.83;;;;;;;-0.67;76.51;100221.31;5108252;28;20023;-72
2022/01/19 00:53:18;;;;;;;68.72;27.38;;;;;;;-0.67;76.16;100208.69;5107664;28;20029;-72
2022/01/19 00:55:43;;;;;;;71.55;27.52;;;;;;;-0.67;76.08;100213.22;5108355;28;20031;-72
2022/01/19 00:58:09;;;;;;;73.88;25.30;;;;;;;-0.66;76.08;100213.06;5108275;28;20023;-72
2022/01/19 01:00:34;;;;;;;60.20;24.77;;;;;;;-0.65;76.13;100206.66;5107867;28;20031;-71
2022/01/19 01:03:00;;;;;;;66.82;25.58;;;;;;;-0.60;75.99;100203.41;5107996;28;20027;-71
2022/01/19 01:05:25;;;;;;;72.38;27.40;;;;;;;-0.58;76.16;100197.81;5107933;28;20027;-71
2022/01/19 01:07:51;;;;;;;64.97;24.33;;;;;;;-0.57;75.94;100202.19;5090156;28;20058;-72
2022/01/19 01:10:19;;;;;;;63.30;24.25;;;;;;;-0.59;75.71;100197.00;5108200;28;20034;-71
2022/01/19 01:12:48;;;;;;;61.40;23.50;;;;;;;-0.58;76.12;100181.66;5107375;28;20019;-72
2022/01/19 01:18:22;;;;;;;70.88;26.70;;;;;;;-0.62;75.86;100154.22;5044225;28;20039;-71
2022/01/19 01:20:50;;;;;;;73.72;27.88;;;;;;;-0.63;75.53;100152.56;5094232;28;20044;-72
2022/01/19 01:23:18;;;;;;;72.35;26.77;;;;;;;-0.62;75.90;100154.22;5107258;28;20034;-71
2022/01/19 01:25:44;;;;;;;70.90;27.02;;;;;;;-0.62;75.90;100148.84;5107751;28;20023;-72
2022/01/19 01:28:09;;;;;;;65.60;24.83;;;;;;;-0.61;75.71;100153.22;5107513;28;20034;-72
2022/01/19 01:30:36;;;;;;;68.53;25.17;;;;;;;-0.61;75.83;100129.78;5107456;28;20027;-72
2022/01/19 01:33:02;;;;;;;67.53;24.38;;;;;;;-0.58;75.61;100131.31;5089945;28;20123;-72
2022/01/19 01:35:27;;;;;;;64.13;23.77;;;;;;;-0.54;75.61;100126.38;5108696;28;20103;-72
2022/01/19 01:37:53;;;;;;;63.95;26.98;;;;;;;-0.56;75.23;100098.75;5108869;28;20024;-72
2022/01/19 01:40:19;;;;;;;58.30;24.77;;;;;;;-0.57;75.58;100103.31;5108491;28;20075;-72
2022/01/19 01:42:45;;;;;;;60.97;23.63;;;;;;;-0.54;75.69;100096.72;5107770;28;20024;-72
2022/01/19 01:45:14;;;;;;;61.25;24.45;;;;;;;-0.55;75.25;100087.81;5107075;28;20030;-71
2022/01/19 01:47:46;;;;;;;63.92;24.30;;;;;;;-0.56;75.62;100071.81;5108679;28;20103;-71
2022/01/19 01:55:27;;;;;;;55.10;22.75;;;;;;;-0.58;75.59;100044.22;5112203;28;20038;-70
2022/01/19 01:57:52;;;;;;;58.78;22.38;;;;;;;-0.59;75.41;100048.78;5113098;28;20080;-71
2022/01/19 02:00:22;;;;;;;54.58;21.75;;;;;;;-0.58;75.51;100052.28;5094332;28;20457;-72
2022/01/19 02:02:48;;;;;;;60.70;22.25;;;;;;;-0.60;75.34;100050.63;5112574;28;20027;-72
2022/01/19 02:05:15;;;;;;;55.58;20.85;;;;;;;-0.62;75.38;100057.22;5113716;28;20053;-72
2022/01/19 02:08:00;;;;;;;51.70;20.25;;;;;;;-0.63;75.40;100059.09;5113636;28;20030;-72
2022/01/19 02:11:32;;;;;;;58.08;21.38;;;;;;;-0.64;75.29;100049.34;5113859;28;20035;-71
2022/01/19 02:24:06;;;;;;;52.47;20.67;;;;;;;-0.52;75.16;100049.72;5113076;28;20046;-72
2022/01/19 02:28:57;;;;;;;44.75;19.73;;;;;;;-0.48;75.39;100056.41;5114696;27;20046;-72
2022/01/19 02:40:32;;;;;;;55.75;21.67;;;;;;;-0.42;75.23;100041.34;5112808;28;20066;-71
2022/01/19 02:50:38;;;;;;;52.75;20.13;;;;;;;-0.49;75.25;100037.72;5113583;28;20077;-71
2022/01/19 02:53:04;;;;;;;41.70;17.63;;;;;;;-0.47;75.08;100035.69;5112373;28;20019;-71
2022/01/19 02:55:31;;;;;;;46.22;17.27;;;;;;;-0.55;74.92;100036.59;5113111;28;20027;-71
2022/01/19 02:57:57;;;;;;;49.53;20.85;;;;;;;-0.61;75.26;100024.69;5113234;28;20024;-72
2022/01/19 03:08:47;;;;;;;44.30;18.58;;;;;;;-0.76;75.44;100002.28;5112440;28;20105;-71
2022/01/19 03:11:19;;;;;;;53.97;18.00;;;;;;;-0.81;75.08;99993.94;5112164;28;20032;-71
2022/01/19 03:13:46;;;;;;;37.42;16.05;;;;;;;-0.82;75.38;99979.63;5111331;28;20032;-71
2022/01/19 03:16:12;;;;;;;42.90;16.92;;;;;;;-0.85;75.45;99973.75;5111990;28;20039;-70
2022/01/19 03:18:37;;;;;;;42.88;17.20;;;;;;;-0.84;75.29;99970.91;5093917;28;20027;-71
2022/01/19 03:21:03;;;;;;;43.78;17.02;;;;;;;-0.88;75.35;99980.38;5110935;28;20084;-71
2022/01/19 03:23:29;;;;;;;43.25;18.25;;;;;;;-0.92;75.43;99979.06;5110500;28;20020;-70
2022/01/19 03:25:56;;;;;;;40.58;18.35;;;;;;;-0.96;75.56;99980.44;5112497;28;20023;-71
2022/01/19 03:28:21;;;;;;;39.00;17.75;;;;;;;-1.04;75.82;99978.66;5112194;28;20120;-71
2022/01/19 03:30:48;;;;;;;44.70;18.00;;;;;;;-1.15;75.32;99971.84;5110411;28;20729;-70
2022/01/19 03:33:14;;;;;;;45.15;17.08;;;;;;;-1.26;75.59;99965.03;5110011;28;20038;-71
2022/01/19 03:35:40;;;;;;;41.17;17.42;;;;;;;-1.34;75.57;99978.56;5111408;28;20049;-71
2022/01/19 03:38:09;;;;;;;36.78;17.42;;;;;;;-1.43;75.55;99980.50;5111602;28;20032;-70
2022/01/19 03:40:35;;;;;;;42.80;18.02;;;;;;;-1.50;75.60;99980.38;5091661;28;20100;-71
2022/01/19 03:43:01;;;;;;;37.50;17.40;;;;;;;-1.55;75.40;99974.72;5107002;27;20032;-71
2022/01/19 03:45:27;;;;;;;40.95;16.42;;;;;;;-1.61;76.01;99978.09;5110014;28;20024;-71
2022/01/19 03:48:09;;;;;;;44.15;18.92;;;;;;;-1.66;75.75;99975.13;5110603;28;20030;-71
2022/01/19 03:50:35;;;;;;;37.50;16.23;;;;;;;-1.72;75.98;99976.69;5090378;28;20028;-71
2022/01/19 03:53:01;;;;;;;41.85;16.08;;;;;;;-1.74;76.18;99977.84;5108867;28;20020;-71
2022/01/19 03:55:27;;;;;;;43.45;16.58;;;;;;;-1.78;75.90;99981.91;5110761;28;20069;-70
2022/01/19 03:57:52;;;;;;;40.75;16.48;;;;;;;-1.84;75.69;99978.94;5092289;28;20023;-71
2022/01/19 04:00:19;;;;;;;36.10;14.90;;;;;;;-1.88;76.26;99974.06;5108354;28;20040;-71
2022/01/19 04:02:45;;;;;;;39.53;16.30;;;;;;;-1.95;75.84;99977.47;5108374;28;20560;-71
2022/01/19 04:05:34;;;;;;;35.85;15.55;;;;;;;-1.97;76.30;99965.22;5109638;28;20036;-71
2022/01/19 04:07:59;;;;;;;40.95;16.80;;;;;;;-2.04;76.17;99961.56;5092328;28;20118;-71
2022/01/19 04:10:24;;;;;;;44.90;17.63;;;;;;;-2.08;76.36;99965.63;5109325;28;20118;-70
2022/01/19 04:13:09;;;;;;;45.67;19.70;;;;;;;-2.14;76.23;99954.56;5109027;28;20582;-71
2022/01/19 04:15:36;;;;;;;45.08;19.35;;;;;;;-2.16;76.37;99953.06;5108517;28;20051;-70
2022/01/19 04:18:02;;;;;;;41.75;17.52;;;;;;;-2.20;76.61;99951.75;5110528;28;20069;-71
2022/01/19 04:20:28;;;;;;;41.05;18.30;;;;;;;-2.26;76.54;99940.69;5109974;28;20479;-71
2022/01/19 04:22:54;;;;;;;42.03;16.17;;;;;;;-2.29;76.87;99946.41;5109184;28;20123;-71
2022/01/19 04:25:19;;;;;;;40.60;17.38;;;;;;;-2.33;76.64;99939.69;5110126;28;20055;-71
2022/01/19 04:27:45;;;;;;;36.95;15.68;;;;;;;-2.36;77.12;99932.00;5110417;28;20040;-71
2022/01/19 04:30:13;;;;;;;44.10;17.20;;;;;;;-2.41;76.64;99924.47;5110155;28;20022;-71
2022/01/19 04:33:07;;;;;;;44.65;17.58;;;;;;;-2.44;77.31;99911.38;5110588;28;20023;-71
2022/01/19 04:35:32;;;;;;;40.88;17.67;;;;;;;-2.47;77.16;99910.91;5109986;28;20503;-71
2022/01/19 04:44:33;;;;;;;44.50;17.73;;;;;;;-2.57;77.20;99894.97;5110281;28;20054;-71
2022/01/19 04:49:11;;;;;;;46.92;19.92;;;;;;;-2.64;77.27;99889.47;5109097;27;20046;-71
2022/01/19 05:07:33;;;;;;;52.45;19.73;;;;;;;-2.79;77.12;99884.00;5110391;28;20073;-71
2022/01/19 05:15:15;;;;;;;46.42;18.75;;;;;;;-2.89;77.15;99865.41;5108997;28;20528;-71
2022/01/19 05:17:40;;;;;;;41.78;17.52;;;;;;;-2.91;77.32;99871.94;5090506;28;20044;-71
2022/01/19 05:20:08;;;;;;;47.95;20.33;;;;;;;-2.92;77.30;99867.59;5090370;28;20528;-71
2022/01/19 05:22:34;;;;;;;47.22;19.58;;;;;;;-2.94;77.40;99859.72;5108699;28;20028;-71
2022/01/19 05:25:00;;;;;;;47.00;20.40;;;;;;;-2.96;77.46;99861.75;5110434;28;20028;-71
2022/01/19 05:27:26;;;;;;;45.65;20.30;;;;;;;-3.00;77.41;99855.88;5109863;28;20459;-71
2022/01/19 05:29:52;;;;;;;49.53;20.45;;;;;;;-3.03;77.68;99850.84;5107066;28;20030;-71
2022/01/19 05:32:17;;;;;;;54.45;21.50;;;;;;;-3.02;77.42;99846.31;5107248;28;20031;-70
2022/01/19 05:34:43;;;;;;;46.75;21.15;;;;;;;-3.08;77.56;99841.66;5109451;28;20031;-71
2022/01/19 05:37:08;;;;;;;50.85;20.73;;;;;;;-3.07;77.51;99856.75;5109294;28;20361;-72
2022/01/19 05:39:34;;;;;;;54.35;20.83;;;;;;;-3.12;78.28;99843.84;5109775;28;20019;-71
2022/01/19 05:41:59;;;;;;;52.60;22.20;;;;;;;-3.15;77.52;99842.34;5109172;28;20067;-70
2022/01/19 05:44:25;;;;;;;50.97;22.15;;;;;;;-3.18;78.08;99841.84;5108678;28;20149;-70
2022/01/19 05:46:50;;;;;;;52.75;21.83;;;;;;;-3.21;78.01;99832.28;5108848;28;20031;-69
2022/01/19 05:49:16;;;;;;;60.47;25.05;;;;;;;-3.23;77.84;99830.78;5109032;28;20039;-68
2022/01/19 05:51:41;;;;;;;62.10;23.75;;;;;;;-3.22;77.83;99829.78;5109381;28;20080;-72
2022/01/19 05:54:07;;;;;;;100.07;34.60;;;;;;;-3.23;77.67;99826.25;5109283;28;20054;-72
2022/01/19 05:56:33;;;;;;;82.38;33.13;;;;;;;-3.25;77.83;99816.72;5091946;28;20112;-70
2022/01/19 05:58:58;;;;;;;81.70;32.63;;;;;;;-3.27;77.76;99822.28;5109750;28;20055;-73
2022/01/19 06:01:24;;;;;;;70.50;27.63;;;;;;;-3.30;77.88;99817.25;5109218;28;20039;-73
2022/01/19 06:03:51;;;;;;;64.20;26.60;;;;;;;-3.32;78.02;99816.56;5108939;28;20112;-73
2022/01/19 06:06:17;;;;;;;63.30;24.90;;;;;;;-3.33;78.14;99820.28;5108995;28;20081;-72
2022/01/19 06:08:45;;;;;;;60.50;22.30;;;;;;;-3.36;78.32;99818.75;5109936;28;20031;-73
2022/01/19 06:11:11;;;;;;;65.25;26.73;;;;;;;-3.38;78.29;99810.03;5110930;28;20028;-76
2022/01/19 06:13:37;;;;;;;62.58;26.08;;;;;;;-3.38;78.14;99815.41;5091304;28;20032;-72
2022/01/19 06:16:03;;;;;;;59.92;26.10;;;;;;;-3.36;78.21;99815.25;5091556;28;20054;-74
2022/01/19 06:18:28;;;;;;;51.45;22.63;;;;;;;-3.37;78.52;99813.56;5108584;28;20523;-74
2022/01/19 06:20:54;;;;;;;54.08;23.90;;;;;;;-3.39;78.77;99805.69;5109994;28;20130;-76
2022/01/19 06:23:19;;;;;;;63.15;23.95;;;;;;;-3.40;78.14;99790.59;5109530;28;20372;-77
2022/01/19 06:25:45;;;;;;;67.88;26.05;;;;;;;-3.42;78.51;99795.28;5110131;28;20024;-77
2022/01/19 06:28:10;;;;;;;62.10;25.45;;;;;;;-3.39;78.63;99794.94;5110019;28;20391;-76
2022/01/19 06:30:36;;;;;;;59.58;23.55;;;;;;;-3.38;78.50;99790.44;5109774;28;20483;-75
2022/01/19 06:33:02;;;;;;;87.85;30.67;;;;;;;-3.40;78.00;99801.31;5109694;28;20031;-75
2022/01/19 06:35:28;;;;;;;67.30;27.98;;;;;;;-3.38;78.48;99785.06;5109945;28;20372;-73
2022/01/19 06:37:53;;;;;;;64.15;24.30;;;;;;;-3.39;78.47;99796.81;5111201;28;20081;-74
2022/01/19 06:40:20;;;;;;;66.35;30.08;;;;;;;-3.40;78.47;99797.81;5094122;28;20066;-75
2022/01/19 06:42:46;;;;;;;59.63;27.35;;;;;;;-3.42;78.16;99797.97;5093401;28;20031;-76
2022/01/19 06:45:12;;;;;;;54.30;24.88;;;;;;;-3.42;78.27;99797.16;5113565;28;20032;-74
2022/01/19 06:47:39;;;;;;;59.92;23.35;;;;;;;-3.41;78.23;99793.47;5113804;27;20015;-75
2022/01/19 06:50:07;;;;;;;51.17;23.60;;;;;;;-3.42;78.47;99800.66;5112678;28;20027;-75
2022/01/19 06:52:33;;;;;;;70.20;29.73;;;;;;;-3.44;78.45;99791.94;5112066;28;20023;-75
2022/01/19 06:54:58;;;;;;;61.45;24.80;;;;;;;-3.45;78.60;99803.69;5112371;28;20023;-75
2022/01/19 06:57:23;;;;;;;53.20;22.70;;;;;;;-3.47;79.17;99797.69;5113402;27;20054;-75
2022/01/19 06:59:51;;;;;;;54.95;22.35;;;;;;;-3.51;78.72;99797.16;5093042;28;20027;-75
2022/01/19 07:02:20;;;;;;;50.25;21.90;;;;;;;-3.51;79.49;99788.28;5109617;28;20023;-74
2022/01/19 07:04:49;;;;;;;55.20;22.38;;;;;;;-3.53;79.06;99785.75;5111200;28;20376;-76
2022/01/19 07:07:18;;;;;;;55.90;21.87;;;;;;;-3.55;79.26;99779.72;5112418;27;20521;-74
2022/01/19 07:09:45;;;;;;;44.25;19.98;;;;;;;-3.55;79.32;99777.06;5111485;28;20019;-74
2022/01/19 07:12:11;;;;;;;55.10;21.60;;;;;;;-3.55;79.50;99777.06;5112142;27;20031;-72
2022/01/19 07:14:37;;;;;;;54.45;21.15;;;;;;;-3.55;79.46;99773.56;5112063;28;20484;-71
2022/01/19 07:17:03;;;;;;;52.45;21.25;;;;;;;-3.54;79.30;99764.50;5112995;27;20032;-73
2022/01/19 07:19:28;;;;;;;48.42;20.48;;;;;;;-3.53;79.39;99767.00;5091109;28;20032;-73
2022/01/19 07:21:54;;;;;;;53.17;21.52;;;;;;;-3.53;79.60;99775.03;5110529;28;20108;-73
2022/01/19 07:24:20;;;;;;;52.30;20.73;;;;;;;-3.53;79.49;99768.84;5112070;28;20028;-74
2022/01/19 07:26:46;;;;;;;57.90;23.35;;;;;;;-3.50;79.69;99768.50;5112923;27;20031;-72
2022/01/19 07:29:12;;;;;;;48.05;21.02;;;;;;;-3.47;79.76;99762.81;5112315;28;20055;-74
2022/01/19 07:31:38;;;;;;;49.35;19.80;;;;;;;-3.47;79.85;99758.25;5111827;28;20442;-74
2022/01/19 07:34:03;;;;;;;55.03;23.35;;;;;;;-3.44;79.84;99752.56;5112065;28;20028;-74
2022/01/19 07:36:29;;;;;;;48.20;20.50;;;;;;;-3.39;79.68;99746.66;5112188;27;20056;-74
2022/01/19 07:38:54;;;;;;;47.72;20.42;;;;;;;-3.38;79.52;99748.31;5109090;27;20130;-70
2022/01/19 07:41:20;;;;;;;46.92;20.23;;;;;;;-3.33;79.65;99748.66;5109031;27;20477;-71
2022/01/19 07:43:45;;;;;;;50.30;21.35;;;;;;;-3.27;79.61;99747.13;5110784;28;20933;-75
2022/01/19 07:46:11;;;;;;;50.58;21.38;;;;;;;-3.21;79.84;99750.97;5110506;27;20028;-72
2022/01/19 07:48:36;;;;;;;54.90;22.42;;;;;;;-3.16;79.46;99743.22;5091749;28;20472;-72
2022/01/19 07:51:01;;;;;;;65.85;25.23;;;;;;;-3.13;79.60;99740.19;5110906;28;20020;-73
2022/01/19 07:53:27;;;;;;;53.33;22.80;;;;;;;-3.07;79.53;99730.59;5110000;28;20184;-75
2022/01/19 07:55:53;;;;;;;46.03;20.05;;;;;;;-3.04;79.55;99731.06;5109821;28;20027;-74
2022/01/19 07:58:19;;;;;;;47.30;20.65;;;;;;;-3.02;79.57;99722.84;5111570;28;20024;-75
2022/01/19 08:00:44;;;;;;;46.67;21.10;;;;;;;-2.96;79.59;99726.66;5110281;27;20050;-76
2022/01/19 08:03:10;;;;;;;47.33;20.55;;;;;;;-2.92;79.29;99723.47;5109935;27;20015;-74
2022/01/19 08:05:35;;;;;;;51.50;20.27;;;;;;;-2.85;79.31;99718.22;5092061;28;20030;-75
2022/01/19 08:08:02;;;;;;;44.03;19.25;;;;;;;-2.81;79.84;99707.94;5109397;28;20031;-75
2022/01/19 08:10:29;;;;;;;46.40;19.83;;;;;;;-2.76;79.44;99695.69;5110257;28;20027;-75
2022/01/19 08:12:55;;;;;;;54.42;22.08;;;;;;;-2.70;79.41;99702.16;5108391;27;20043;-75
2022/01/19 08:15:21;;;;;;;44.17;20.17;;;;;;;-2.62;79.65;99687.84;5094549;28;20024;-76
2022/01/19 08:17:46;;;;;;;42.10;19.02;;;;;;;-2.56;79.49;99689.81;5110785;28;20035;-75
2022/01/19 08:20:13;;;;;;;47.72;19.70;;;;;;;-2.50;79.26;99683.72;5111437;27;20403;-75
2022/01/19 08:22:38;;;;;;;42.40;19.02;;;;;;;-2.44;79.32;99677.63;5108276;28;20027;-75
2022/01/19 08:25:04;;;;;;;40.78;18.77;;;;;;;-2.37;79.02;99679.59;5109100;28;20064;-74
2022/01/19 08:27:30;;;;;;;38.95;17.98;;;;;;;-2.32;79.29;99675.34;5111330;28;20360;-74
2022/01/19 08:29:55;;;;;;;36.35;17.45;;;;;;;-2.24;79.19;99679.78;5110839;28;20488;-74
2022/01/19 08:32:20;;;;;;;37.90;16.38;;;;;;;-2.16;79.19;99671.66;5091106;28;20456;-75
2022/01/19 08:34:46;;;;;;;36.80;15.75;;;;;;;-2.09;79.09;99666.41;5110763;27;20035;-76
2022/01/19 08:37:15;;;;;;;36.50;16.88;;;;;;;-2.02;79.03;99661.09;5110817;27;20035;-75
2022/01/19 08:39:43;;;;;;;34.35;17.17;;;;;;;-1.97;78.73;99653.31;5110873;28;20023;-75
2022/01/19 08:42:10;;;;;;;38.25;16.50;;;;;;;-1.89;78.68;99644.31;5111329;27;20046;-76
2022/01/19 08:44:35;;;;;;;38.10;16.42;;;;;;;-1.83;78.61;99652.47;5111281;27;20039;-75
2022/01/19 08:47:01;;;;;;;29.20;14.27;;;;;;;-1.76;78.66;99651.75;5112623;27;20015;-76
2022/01/19 08:49:26;;;;;;;33.53;15.13;;;;;;;-1.71;78.58;99649.31;5109127;28;20085;-75
2022/01/19 08:51:52;;;;;;;33.85;15.60;;;;;;;-1.66;78.15;99649.59;5106109;28;20035;-75
2022/01/19 08:54:17;;;;;;;34.42;16.17;;;;;;;-1.61;78.33;99644.50;5111851;27;20035;-74
2022/01/19 08:56:43;;;;;;;32.58;14.95;;;;;;;-1.55;78.22;99633.00;5111070;28;20061;-76
2022/01/19 08:59:08;;;;;;;35.67;15.30;;;;;;;-1.45;78.20;99631.88;5091382;28;20027;-75
2022/01/19 09:01:33;;;;;;;36.45;17.30;;;;;;;-1.42;77.99;99632.31;5090317;28;20046;-75
2022/01/19 09:03:59;;;;;;;30.10;15.80;;;;;;;-1.37;77.92;99624.50;5109710;28;20133;-74
2022/01/19 09:06:25;;;;;;;31.02;14.50;;;;;;;-1.30;78.00;99624.56;5109206;28;20015;-74
2022/01/19 09:08:50;;;;;;;40.00;17.90;;;;;;;-1.23;77.44;99624.66;5089856;28;20388;-73
2022/01/19 09:11:16;;;;;;;36.75;18.38;;;;;;;-1.17;77.71;99613.13;5106255;28;20027;-74
2022/01/19 09:13:41;;;;;;;34.55;17.05;;;;;;;-1.11;77.90;99611.53;5110673;27;20441;-74
2022/01/19 09:16:07;;;;;;;37.00;18.83;;;;;;;-1.00;77.41;99612.88;5090292;28;20024;-73
2022/01/19 09:18:32;;;;;;;30.52;14.60;;;;;;;-0.91;77.87;99617.94;5109613;28;20416;-73
2022/01/19 09:20:58;;;;;;;32.92;16.67;;;;;;;-0.79;77.35;99606.66;5090495;28;20066;-69
2022/01/19 09:23:23;;;;;;;29.30;14.05;;;;;;;-0.71;77.18;99606.53;5090118;28;20372;-71
2022/01/19 09:25:49;;;;;;;35.25;16.50;;;;;;;-0.67;76.99;99599.72;5108306;28;20066;-71
2022/01/19 09:28:15;;;;;;;34.03;15.98;;;;;;;-0.60;76.81;99597.06;5108738;28;20463;-71
2022/01/19 09:30:41;;;;;;;48.78;20.33;;;;;;;-0.54;76.54;99587.38;5107947;28;20019;-73
2022/01/19 09:33:10;;;;;;;51.80;21.55;;;;;;;-0.49;76.62;99584.91;5107633;28;20035;-72
2022/01/19 09:38:27;;;;;;;;;;;;;;;-0.29;76.40;99585.06;5056327;28;20047;-71
2022/01/19 09:40:52;;;;;;;28.55;12.98;;;;;;;-0.26;76.41;99575.75;5108715;28;19941;-72
2022/01/19 09:43:22;;;;;;;38.42;16.33;;;;;;;-0.19;76.50;99579.31;5108642;28;20048;-72
2022/01/19 09:45:49;;;;;;;30.73;13.27;;;;;;;-0.19;75.73;99582.84;5108142;28;20019;-74
2022/01/19 09:48:15;;;;;;;69.13;21.08;;;;;;;-0.25;75.47;99564.75;5109382;28;20157;-74
2022/01/19 09:50:40;;;;;;;162.40;43.10;;;;;;;-0.33;75.32;99564.91;5109525;28;20041;-72
2022/01/19 09:53:07;;;;;;;90.75;26.80;;;;;;;-0.35;75.50;99564.28;5107669;28;20028;-74
2022/01/19 09:55:34;;;;;;;131.43;34.80;;;;;;;-0.33;75.93;99552.28;5107820;28;20035;-74
2022/01/19 09:57:59;;;;;;;39.28;14.90;;;;;;;-0.35;75.93;99548.94;5089919;28;20022;-72
2022/01/19 10:00:25;;;;;;;94.18;27.77;;;;;;;-0.34;75.97;99547.91;5109873;28;20034;-72
2022/01/19 10:03:13;;;;;;;69.22;22.23;;;;;;;-0.32;75.16;99537.78;5107279;28;20024;-72
2022/01/19 10:05:53;;;;;;;67.30;24.17;;;;;;;-0.33;75.16;99533.41;5105984;28;20054;-73
2022/01/19 10:08:37;;;;;;;61.50;20.88;;;;;;;-0.26;74.83;99516.44;5104633;28;20030;-72
2022/01/19 10:11:11;;;;;;;34.88;15.65;;;;;;;-0.28;75.27;99511.25;5106665;28;20494;-74
2022/01/19 10:19:19;;;;;;;36.97;16.98;;;;;;;-0.23;75.48;99505.25;5112288;28;20039;-74
2022/01/19 10:22:18;;;;;;;35.22;16.33;;;;;;;-0.19;74.77;99503.81;5092637;28;20063;-73
2022/01/19 10:24:57;;;;;;;31.45;15.45;;;;;;;-0.08;75.35;99503.25;5112120;27;20031;-79
2022/01/19 10:27:32;;;;;;;26.15;13.88;;;;;;;-0.01;74.81;99501.41;5112882;28;20412;-73
2022/01/19 10:30:03;;;;;;;24.85;12.65;;;;;;;0.09;75.14;99497.50;5112694;27;20028;-72
2022/01/19 10:32:35;;;;;;;31.42;15.73;;;;;;;0.19;74.90;99491.72;5112314;28;20471;-73
2022/01/19 10:35:25;;;;;;;21.40;12.05;;;;;;;0.31;74.75;99483.88;5113231;27;20059;-72
2022/01/19 10:38:15;;;;;;;25.25;12.90;;;;;;;0.48;74.80;99482.47;5112290;28;20035;-71
2022/01/19 10:41:02;;;;;;;24.67;12.93;;;;;;;0.55;74.48;99480.63;5093226;28;20167;-74
2022/01/19 10:43:45;;;;;;;20.35;11.48;;;;;;;0.63;74.44;99462.53;5111219;27;20093;-71
2022/01/19 10:46:34;;;;;;;19.42;10.15;;;;;;;0.73;73.93;99457.56;5113674;27;20479;-73
2022/01/19 10:49:01;;;;;;;20.63;10.65;;;;;;;0.79;73.39;99459.44;5110422;28;20028;-67
2022/01/19 10:51:31;;;;;;;22.55;12.30;;;;;;;0.86;73.50;99454.88;5108834;28;20119;-69
2022/01/19 10:54:15;;;;;;;19.13;11.00;;;;;;;0.84;72.60;99451.56;5098210;27;20043;-73
2022/01/19 10:56:45;;;;;;;20.60;10.82;;;;;;;0.84;72.01;99450.69;5111728;27;20542;-70
2022/01/19 10:59:14;;;;;;;19.52;10.25;;;;;;;0.86;72.61;99437.81;5106871;27;20030;-69
2022/01/19 11:01:39;;;;;;;21.38;10.70;;;;;;;0.85;72.27;99431.59;5093684;28;20031;-71
2022/01/19 11:04:23;;;;;;;23.40;11.82;;;;;;;0.86;72.69;99419.75;5112675;27;20395;-72
2022/01/19 11:06:57;;;;;;;35.00;17.20;;;;;;;0.95;72.59;99414.16;5094848;28;20089;-71
2022/01/19 11:09:25;;;;;;;21.77;11.45;;;;;;;1.00;72.52;99408.97;5111146;28;20479;-71
2022/01/19 11:11:54;;;;;;;19.77;10.80;;;;;;;1.05;71.97;99395.63;5112948;27;20015;-70
2022/01/19 11:14:20;;;;;;;21.70;11.63;;;;;;;1.03;71.72;99389.59;5092729;28;20028;-71
2022/01/19 11:16:47;;;;;;;24.00;11.38;;;;;;;0.98;71.58;99381.31;5109532;27;20031;-71
2022/01/19 11:19:13;;;;;;;16.73;9.43;;;;;;;1.00;71.66;99373.84;5110042;28;20076;-72
2022/01/19 11:22:17;;;;;;;19.77;10.02;;;;;;;0.94;71.52;99380.88;5090581;28;20028;-71
2022/01/19 11:24:48;;;;;;;17.92;8.50;;;;;;;0.89;71.02;99369.88;5066164;28;20097;-72
2022/01/19 11:27:15;;;;;;;20.13;10.85;;;;;;;0.83;71.57;99357.22;5104635;27;20027;-71
2022/01/19 11:29:40;;;;;;;17.77;9.93;;;;;;;0.86;70.89;99354.94;5090649;28;20023;-73
2022/01/19 11:32:18;;;;;;;15.50;8.88;;;;;;;0.85;70.92;99342.47;5109288;27;20038;-71
2022/01/19 11:34:50;;;;;;;18.35;8.63;;;;;;;0.82;70.71;99342.06;5109304;27;20019;-71
2022/01/19 11:37:40;;;;;;;10.73;7.47;;;;;;;0.78;71.03;99348.94;5106837;27;20015;-71
2022/01/19 11:40:11;;;;;;;17.35;8.57;;;;;;;0.79;70.87;99334.41;5092959;28;20032;-73
2022/01/19 11:42:38;;;;;;;15.38;9.00;;;;;;;0.80;71.09;99336.06;5113270;27;20137;-72
2022/01/19 11:45:07;;;;;;;16.92;9.05;;;;;;;0.79;70.74;99329.81;5107931;27;20157;-70
2022/01/19 11:47:32;;;;;;;17.08;8.88;;;;;;;0.73;70.15;99315.28;5107046;28;20031;-70
2022/01/19 11:50:08;;;;;;;21.70;8.57;;;;;;;0.68;69.92;99312.41;5112745;27;20027;-70
2022/01/19 11:52:35;;;;;;;17.38;8.93;;;;;;;0.63;70.14;99316.75;5109188;28;20031;-74
2022/01/19 11:55:18;;;;;;;18.45;9.60;;;;;;;0.61;70.18;99310.75;5089553;28;20040;-71
2022/01/19 11:57:46;;;;;;;19.27;10.25;;;;;;;0.58;69.71;99299.34;5090546;28;20046;-73
2022/01/19 12:00:23;;;;;;;17.10;9.88;;;;;;;0.57;70.10;99280.63;5089897;28;20498;-73
2022/01/19 12:02:58;;;;;;;16.23;8.57;;;;;;;0.61;70.08;99278.38;5108387;28;20023;-73
2022/01/19 12:05:43;;;;;;;15.20;8.25;;;;;;;0.68;70.56;99280.00;5108537;28;20027;-72
2022/01/19 12:08:28;;;;;;;15.23;9.43;;;;;;;0.73;69.85;99274.78;5089253;28;20030;-71
2022/01/19 12:10:57;;;;;;;17.35;8.52;;;;;;;0.73;69.83;99263.16;5105799;28;20410;-73
2022/01/19 12:16:25;;;;;;;39.10;21.58;;;;;;;0.83;69.75;99254.59;5107179;28;20055;-70
2022/01/19 12:18:56;;;;;;;16.02;8.43;;;;;;;0.82;68.13;99247.53;5109142;28;20051;-68
2022/01/19 12:21:30;;;;;;;20.65;10.10;;;;;;;0.82;68.76;99244.84;5110027;27;20078;-73
2022/01/19 12:24:13;;;;;;;27.08;12.27;;;;;;;0.82;68.25;99236.72;5090987;28;20437;-69
2022/01/19 12:27:03;;;;;;;17.55;8.05;;;;;;;0.81;68.61;99224.31;5089098;27;20031;-72
2022/01/19 12:29:36;;;;;;;19.50;8.38;;;;;;;0.83;68.16;99222.19;5112981;27;20051;-72
2022/01/19 12:32:04;;;;;;;17.98;9.18;;;;;;;0.84;67.83;99219.28;5112079;27;20070;-72
2022/01/19 12:34:50;;;;;;;17.15;8.15;;;;;;;0.85;67.89;99215.56;5091769;28;20036;-72
2022/01/19 12:37:45;;;;;;;13.85;8.18;;;;;;;0.88;67.06;99203.47;5090968;28;20049;-72
2022/01/19 12:40:17;;;;;;;14.98;7.50;;;;;;;0.93;67.56;99192.03;5105596;28;20035;-72
2022/01/19 12:42:48;;;;;;;19.35;8.77;;;;;;;0.95;67.69;99182.66;5088806;28;20365;-75
2022/01/19 12:45:32;;;;;;;16.98;8.73;;;;;;;0.98;66.73;99184.94;5105864;28;20024;-72
2022/01/19 12:47:58;;;;;;;20.88;9.60;;;;;;;1.00;66.79;99172.06;5090276;28;20034;-72
2022/01/19 12:50:26;;;;;;;21.13;9.63;;;;;;;1.07;67.07;99177.41;5105975;28;20124;-72
2022/01/19 12:52:55;;;;;;;16.27;8.45;;;;;;;1.11;67.49;99159.72;5106068;28;20409;-70
2022/01/19 12:55:29;;;;;;;17.10;7.93;;;;;;;1.16;66.88;99159.91;5092102;28;20028;-70